Time;durP1;ratioP1;P1;durP2;ratioP2;P2;SDS_P1;SDS_P2;PMS_P1;PMS_P2;Temp;Humidity;BMP_temperature;BMP_pressure;BME280_temperature;BME280_humidity;BME280_pressure;Samples;Min_cycle;Max_cycle;Signal;HPM_P1;HPM_P2
2021/11/14 00:01:07;;;;;;;86.82;48.70;;;9.90;99.90;;;;;;5046837;28;20037;-52
2021/11/14 00:03:34;;;;;;;96.28;49.92;;;9.90;99.90;;;;;;5050633;28;20090;-52
2021/11/14 00:06:03;;;;;;;87.03;47.20;;;9.90;99.90;;;;;;5047328;28;20047;-47
2021/11/14 00:08:30;;;;;;;85.03;48.65;;;9.90;99.90;;;;;;5032334;28;20040;-48
2021/11/14 00:11:00;;;;;;;88.80;48.38;;;9.90;99.90;;;;;;5048064;28;20388;-50
2021/11/14 00:13:28;;;;;;;88.20;49.53;;;9.90;99.90;;;;;;5050694;28;20059;-49
2021/11/14 00:15:54;;;;;;;92.03;49.35;;;9.90;99.90;;;;;;5027727;28;20115;-49
2021/11/14 00:18:21;;;;;;;102.57;50.78;;;9.80;99.90;;;;;;5032510;28;20463;-49
2021/11/14 00:20:48;;;;;;;91.85;47.88;;;9.90;99.90;;;;;;5036856;28;20574;-51
2021/11/14 00:23:15;;;;;;;84.93;48.17;;;9.90;99.90;;;;;;5047478;28;20053;-58
2021/11/14 00:25:42;;;;;;;90.38;50.63;;;9.90;99.90;;;;;;5042754;28;20098;-58
2021/11/14 00:28:11;;;;;;;90.28;51.08;;;9.90;99.90;;;;;;5049819;28;20088;-58
2021/11/14 00:30:43;;;;;;;93.38;50.50;;;9.90;99.90;;;;;;5050908;28;20080;-58
2021/11/14 00:33:11;;;;;;;88.80;51.70;;;9.90;99.90;;;;;;5050102;28;20088;-58
2021/11/14 00:35:38;;;;;;;96.00;51.05;;;9.90;99.90;;;;;;5050927;28;20045;-58
2021/11/14 00:38:05;;;;;;;101.35;53.35;;;9.80;99.90;;;;;;5050866;28;20044;-58
2021/11/14 00:40:34;;;;;;;116.68;57.28;;;9.90;99.90;;;;;;5049795;28;20053;-58
2021/11/14 00:43:02;;;;;;;109.05;57.58;;;9.80;99.90;;;;;;5050166;28;20045;-58
2021/11/14 00:45:31;;;;;;;131.35;61.80;;;9.90;99.90;;;;;;5048732;28;20061;-51
2021/11/14 00:47:58;;;;;;;110.25;58.35;;;9.80;99.90;;;;;;5052555;28;20422;-50
2021/11/14 00:50:25;;;;;;;106.15;55.42;;;9.90;99.90;;;;;;5053128;28;20516;-50
2021/11/14 00:52:51;;;;;;;116.10;57.42;;;9.90;99.90;;;;;;5051722;28;20441;-51
2021/11/14 00:55:20;;;;;;;115.38;57.63;;;9.80;99.90;;;;;;5049547;28;20492;-49
2021/11/14 00:57:48;;;;;;;114.13;53.65;;;9.80;99.90;;;;;;5041765;28;20034;-52
2021/11/14 01:00:21;;;;;;;106.57;53.75;;;9.90;99.90;;;;;;5047794;28;20059;-51
2021/11/14 01:02:47;;;;;;;103.88;52.25;;;9.80;99.90;;;;;;5053630;28;20037;-51
2021/11/14 01:05:16;;;;;;;100.90;53.55;;;9.80;99.90;;;;;;5051696;28;20053;-47
2021/11/14 01:07:42;;;;;;;108.68;53.17;;;9.80;99.90;;;;;;5053083;28;20059;-51
2021/11/14 01:10:10;;;;;;;114.82;55.78;;;9.90;99.90;;;;;;5053788;28;20041;-52
2021/11/14 01:12:37;;;;;;;109.10;53.13;;;9.90;99.90;;;;;;5053560;28;20041;-51
2021/11/14 01:15:05;;;;;;;115.07;55.63;;;9.90;99.90;;;;;;5045421;28;20041;-52
2021/11/14 01:17:32;;;;;;;112.68;54.63;;;9.90;99.90;;;;;;5033754;28;20056;-51
2021/11/14 01:19:59;;;;;;;109.35;55.58;;;9.90;99.90;;;;;;5015659;28;20124;-51
2021/11/14 01:22:25;;;;;;;115.65;55.80;;;9.90;99.90;;;;;;5032298;28;20128;-52
2021/11/14 01:24:52;;;;;;;107.55;53.88;;;9.90;99.90;;;;;;5050777;28;20045;-52
2021/11/14 01:27:20;;;;;;;101.43;52.22;;;9.80;99.90;;;;;;5045697;28;20110;-47
2021/11/14 01:29:46;;;;;;;108.13;53.80;;;9.90;99.90;;;;;;5048695;28;20044;-48
2021/11/14 01:32:12;;;;;;;110.28;54.95;;;9.90;99.90;;;;;;5049488;28;20388;-49
2021/11/14 01:34:38;;;;;;;103.82;53.50;;;9.90;99.90;;;;;;5047670;28;20085;-49
2021/11/14 01:37:04;;;;;;;105.75;54.15;;;9.90;99.90;;;;;;5052504;28;20092;-52
2021/11/14 01:39:32;;;;;;;97.82;51.15;;;9.80;99.90;;;;;;5041307;28;20045;-48
2021/11/14 01:41:58;;;;;;;93.45;50.08;;;9.80;99.90;;;;;;5052347;28;20431;-48
2021/11/14 01:44:24;;;;;;;98.82;50.70;;;9.90;99.90;;;;;;5051136;28;20040;-47
2021/11/14 01:46:51;;;;;;;93.30;51.35;;;9.90;99.90;;;;;;5053328;28;20053;-48
2021/11/14 01:49:17;;;;;;;93.13;49.20;;;9.90;99.90;;;;;;5039830;28;20484;-51
2021/11/14 01:51:43;;;;;;;92.20;49.05;;;9.90;99.90;;;;;;5041959;28;20404;-51
2021/11/14 01:54:10;;;;;;;99.32;50.83;;;9.90;99.90;;;;;;5048521;28;20341;-52
2021/11/14 01:56:37;;;;;;;99.07;48.33;;;9.90;99.90;;;;;;5065828;28;20079;-50
2021/11/14 01:59:04;;;;;;;91.57;49.17;;;9.90;99.90;;;;;;5047635;28;20583;-51
2021/11/14 02:01:32;;;;;;;97.53;49.38;;;9.90;99.90;;;;;;5043058;28;20049;-50
2021/11/14 02:04:02;;;;;;;83.35;44.13;;;9.90;99.90;;;;;;5052358;28;20437;-48
2021/11/14 02:06:30;;;;;;;85.18;46.65;;;9.90;99.90;;;;;;5052800;28;20045;-50
2021/11/14 02:08:57;;;;;;;83.20;46.20;;;9.90;99.90;;;;;;5031060;28;20487;-48
2021/11/14 02:11:24;;;;;;;86.57;46.85;;;9.90;99.90;;;;;;5031670;28;20041;-48
2021/11/14 02:13:50;;;;;;;80.32;43.05;;;9.90;99.90;;;;;;5030596;28;20049;-51
2021/11/14 02:16:21;;;;;;;95.20;47.47;;;9.90;99.90;;;;;;5032110;28;20046;-52
2021/11/14 02:18:47;;;;;;;94.28;48.25;;;9.90;99.90;;;;;;5051669;28;20051;-49
2021/11/14 02:21:13;;;;;;;86.63;46.38;;;9.90;99.90;;;;;;5051839;28;20677;-50
2021/11/14 02:23:39;;;;;;;77.00;43.70;;;9.90;99.90;;;;;;5041503;28;20507;-58
2021/11/14 02:26:05;;;;;;;85.78;46.28;;;9.90;99.90;;;;;;5050445;28;20448;-51
2021/11/14 02:28:32;;;;;;;79.25;44.53;;;9.90;99.90;;;;;;5051774;28;20523;-47
2021/11/14 02:30:59;;;;;;;78.28;43.90;;;9.90;99.90;;;;;;5052315;28;20479;-58
2021/11/14 02:33:26;;;;;;;76.72;43.83;;;9.90;99.90;;;;;;5051456;28;20041;-58
2021/11/14 02:35:59;;;;;;;77.53;42.28;;;9.90;99.90;;;;;;5052589;28;20041;-58
2021/11/14 02:38:26;;;;;;;69.22;41.25;;;9.90;99.90;;;;;;5063300;28;20055;-58
2021/11/14 02:40:52;;;;;;;63.85;40.20;;;9.90;99.90;;;;;;5051506;28;20045;-58
2021/11/14 02:43:20;;;;;;;65.65;40.70;;;9.80;99.90;;;;;;5032617;28;20038;-58
2021/11/14 02:45:46;;;;;;;65.32;41.17;;;9.90;99.90;;;;;;5032181;28;20053;-58
2021/11/14 02:48:14;;;;;;;62.45;41.85;;;9.80;99.90;;;;;;5032583;28;20096;-58
2021/11/14 02:50:42;;;;;;;59.30;41.40;;;9.90;99.90;;;;;;5040743;28;20075;-58
2021/11/14 02:53:09;;;;;;;64.22;40.40;;;9.80;99.90;;;;;;5065013;28;20037;-58
2021/11/14 02:55:35;;;;;;;62.50;39.55;;;9.80;99.90;;;;;;5072260;28;20048;-58
2021/11/14 02:58:03;;;;;;;64.40;41.45;;;9.80;99.90;;;;;;5054482;28;20458;-58
2021/11/14 03:00:42;;;;;;;63.05;41.67;;;9.80;99.90;;;;;;5032729;28;20099;-58
2021/11/14 03:03:08;;;;;;;68.30;42.47;;;9.80;99.90;;;;;;5050615;28;20116;-58
2021/11/14 03:05:35;;;;;;;62.47;40.40;;;9.80;99.90;;;;;;5035053;28;20405;-58
2021/11/14 03:08:02;;;;;;;65.03;41.20;;;9.80;99.90;;;;;;5053167;28;20048;-58
2021/11/14 03:10:30;;;;;;;69.82;42.90;;;9.80;99.90;;;;;;5061523;28;20045;-58
2021/11/14 03:13:06;;;;;;;73.07;42.75;;;9.80;99.90;;;;;;5049464;28;20079;-58
2021/11/14 03:15:37;;;;;;;69.20;43.75;;;9.80;99.90;;;;;;5047722;28;20080;-59
2021/11/14 03:18:05;;;;;;;65.47;40.83;;;9.70;99.90;;;;;;5038793;28;20400;-58
2021/11/14 03:20:32;;;;;;;65.95;41.28;;;9.70;99.90;;;;;;5050500;28;20122;-58
2021/11/14 03:22:58;;;;;;;65.43;42.60;;;9.60;99.90;;;;;;5050842;28;20044;-58
2021/11/14 03:25:27;;;;;;;59.85;39.92;;;9.60;99.90;;;;;;5067172;28;20052;-58
2021/11/14 03:27:54;;;;;;;63.83;39.33;;;9.60;99.90;;;;;;5050471;28;20487;-58
2021/11/14 03:30:22;;;;;;;58.83;37.80;;;9.60;99.90;;;;;;5045811;28;20041;-59
2021/11/14 03:32:50;;;;;;;62.08;39.55;;;9.60;99.90;;;;;;5050782;28;20405;-57
2021/11/14 03:35:19;;;;;;;67.65;38.80;;;9.60;99.90;;;;;;5051488;28;20455;-58
2021/11/14 03:37:46;;;;;;;66.20;39.67;;;9.60;99.90;;;;;;5051600;28;20099;-58
2021/11/14 03:40:15;;;;;;;65.85;40.42;;;9.60;99.90;;;;;;5049846;28;20044;-58
2021/11/14 03:42:41;;;;;;;68.65;41.92;;;9.50;99.90;;;;;;5051416;28;20112;-58
2021/11/14 03:45:08;;;;;;;70.45;42.15;;;9.50;99.90;;;;;;5048099;28;20550;-58
2021/11/14 03:47:37;;;;;;;73.53;42.78;;;9.50;99.90;;;;;;5066276;28;20049;-58
2021/11/14 03:50:04;;;;;;;66.75;40.33;;;9.50;99.90;;;;;;5036978;28;20045;-58
2021/11/14 03:52:30;;;;;;;68.93;41.00;;;9.50;99.90;;;;;;5031348;28;20049;-58
2021/11/14 03:54:56;;;;;;;76.53;41.50;;;9.50;99.90;;;;;;5046012;28;20484;-58
2021/11/14 03:57:22;;;;;;;62.08;37.88;;;9.50;99.90;;;;;;5050977;28;20511;-58
2021/11/14 03:59:48;;;;;;;64.63;38.88;;;9.40;99.90;;;;;;5048977;28;20107;-58
2021/11/14 04:02:14;;;;;;;66.32;39.78;;;9.40;99.90;;;;;;5049897;28;20041;-58
2021/11/14 04:04:40;;;;;;;67.15;39.05;;;9.40;99.90;;;;;;5045895;28;20041;-58
2021/11/14 04:07:06;;;;;;;69.28;40.53;;;9.40;99.90;;;;;;5041022;28;20036;-58
2021/11/14 04:09:32;;;;;;;72.68;41.42;;;9.40;99.90;;;;;;5048384;28;20166;-51
2021/11/14 04:11:58;;;;;;;70.93;40.90;;;9.40;99.90;;;;;;5048458;28;20501;-48
2021/11/14 04:14:24;;;;;;;72.18;41.65;;;9.30;99.90;;;;;;5046607;28;20395;-49
2021/11/14 04:16:50;;;;;;;69.00;41.53;;;9.40;99.90;;;;;;5048079;28;20090;-58
2021/11/14 04:19:16;;;;;;;64.97;39.10;;;9.40;99.90;;;;;;5051438;28;21341;-58
2021/11/14 04:21:42;;;;;;;77.68;42.63;;;9.40;99.90;;;;;;5038847;28;20049;-58
2021/11/14 04:24:08;;;;;;;70.65;40.55;;;9.40;99.90;;;;;;5013762;28;20080;-58
2021/11/14 04:26:34;;;;;;;72.47;42.13;;;9.30;99.90;;;;;;5034842;28;20123;-58
2021/11/14 04:29:00;;;;;;;78.50;42.33;;;9.30;99.90;;;;;;5050688;28;20044;-57
2021/11/14 04:31:26;;;;;;;66.50;39.80;;;9.30;99.90;;;;;;5050937;28;20511;-58
2021/11/14 04:33:52;;;;;;;66.75;40.38;;;9.30;99.90;;;;;;5049588;28;20496;-58
2021/11/14 04:36:19;;;;;;;65.70;39.00;;;9.30;99.90;;;;;;5050236;28;20056;-49
2021/11/14 04:38:45;;;;;;;70.80;41.03;;;9.30;99.90;;;;;;5029807;28;20048;-49
2021/11/14 04:41:11;;;;;;;71.07;42.25;;;9.30;99.90;;;;;;5034437;28;20045;-51
2021/11/14 04:43:37;;;;;;;71.10;41.33;;;9.20;99.90;;;;;;5028231;28;20084;-52
2021/11/14 04:46:03;;;;;;;73.38;42.17;;;9.30;99.90;;;;;;5029265;28;20085;-50
2021/11/14 04:48:29;;;;;;;81.70;40.90;;;9.30;99.90;;;;;;5030835;28;20521;-48
2021/11/14 04:50:55;;;;;;;81.85;42.80;;;9.30;99.90;;;;;;5066975;28;20050;-50
2021/11/14 04:53:21;;;;;;;82.38;43.90;;;9.30;99.90;;;;;;5064095;28;20106;-48
2021/11/14 04:55:47;;;;;;;84.95;44.33;;;9.30;99.90;;;;;;5034914;28;20045;-48
2021/11/14 04:58:14;;;;;;;86.63;45.65;;;9.30;99.90;;;;;;5048847;28;20518;-48
2021/11/14 05:00:42;;;;;;;84.45;43.28;;;9.30;99.90;;;;;;5049898;28;20041;-48
2021/11/14 05:03:10;;;;;;;91.43;45.50;;;9.30;99.90;;;;;;5048240;28;20049;-51
2021/11/14 05:05:37;;;;;;;94.00;45.85;;;9.30;99.90;;;;;;5047943;28;20439;-51
2021/11/14 05:08:05;;;;;;;101.93;48.35;;;9.30;99.90;;;;;;5064724;28;20056;-51
2021/11/14 05:10:32;;;;;;;100.15;47.35;;;9.30;99.90;;;;;;5048759;28;20083;-59
2021/11/14 05:12:58;;;;;;;88.72;44.65;;;9.30;99.90;;;;;;5043071;28;20049;-58
2021/11/14 05:15:24;;;;;;;82.90;44.30;;;9.30;99.90;;;;;;5032249;28;20080;-59
2021/11/14 05:17:50;;;;;;;82.72;41.72;;;9.30;99.90;;;;;;5050356;28;20455;-59
2021/11/14 05:20:16;;;;;;;81.40;41.65;;;9.30;99.90;;;;;;5049712;28;20077;-58
2021/11/14 05:22:42;;;;;;;73.60;39.85;;;9.30;99.90;;;;;;5034015;28;20447;-58
2021/11/14 05:25:09;;;;;;;75.47;39.33;;;9.30;99.90;;;;;;5045583;28;20464;-50
2021/11/14 05:27:36;;;;;;;72.05;39.40;;;9.30;99.90;;;;;;5045034;28;20129;-51
2021/11/14 05:30:04;;;;;;;72.13;40.15;;;9.30;99.90;;;;;;5032036;28;20552;-51
2021/11/14 05:32:30;;;;;;;71.78;38.78;;;9.30;99.90;;;;;;5046587;28;20037;-47
2021/11/14 05:34:56;;;;;;;73.72;39.88;;;9.30;99.90;;;;;;5048376;28;20106;-49
2021/11/14 05:37:22;;;;;;;64.72;37.15;;;9.30;99.90;;;;;;5049022;28;20419;-47
2021/11/14 05:39:48;;;;;;;70.32;37.60;;;9.30;99.90;;;;;;5047548;28;20488;-47
2021/11/14 05:42:14;;;;;;;65.03;37.33;;;9.30;99.90;;;;;;5064411;28;20431;-49
2021/11/14 05:44:40;;;;;;;74.38;40.25;;;9.30;99.90;;;;;;5063446;28;20060;-49
2021/11/14 05:47:06;;;;;;;65.05;36.53;;;9.30;99.90;;;;;;5035404;28;20339;-50
2021/11/14 05:49:32;;;;;;;71.55;39.85;;;9.30;99.90;;;;;;5033238;28;20496;-48
2021/11/14 05:51:58;;;;;;;64.88;36.10;;;9.30;99.90;;;;;;5053228;28;20125;-46
2021/11/14 05:54:24;;;;;;;65.22;38.10;;;9.30;99.90;;;;;;5051467;28;20039;-45
2021/11/14 05:56:50;;;;;;;64.18;35.30;;;9.20;99.90;;;;;;5021404;28;20049;-46
2021/11/14 05:59:31;;;;;;;59.70;33.08;;;9.20;99.90;;;;;;5014466;28;20053;-47
2021/11/14 06:02:02;;;;;;;64.22;34.85;;;9.20;99.90;;;;;;5030805;28;20052;-46
2021/11/14 06:06:57;;;;;;;60.83;33.67;;;9.20;99.90;;;;;;5030819;28;20408;-46
2021/11/14 06:09:23;;;;;;;51.20;29.50;;;9.30;99.90;;;;;;5037217;28;20048;-46
2021/11/14 06:11:49;;;;;;;62.08;32.70;;;9.20;99.90;;;;;;5034524;28;20037;-57
2021/11/14 06:14:15;;;;;;;54.28;32.90;;;9.20;99.90;;;;;;5052485;28;20055;-57
2021/11/14 06:16:41;;;;;;;54.00;33.58;;;9.20;99.90;;;;;;5051836;28;20049;-57
2021/11/14 06:19:07;;;;;;;55.17;31.08;;;9.20;99.90;;;;;;5051767;28;20071;-58
2021/11/14 06:21:33;;;;;;;59.70;31.92;;;9.20;99.90;;;;;;5039411;28;20054;-58
2021/11/14 06:23:59;;;;;;;58.42;33.22;;;9.20;99.90;;;;;;5039906;28;20045;-58
2021/11/14 06:26:25;;;;;;;63.55;34.40;;;9.20;99.90;;;;;;5055308;28;20053;-58
2021/11/14 06:28:51;;;;;;;56.47;33.42;;;9.20;99.90;;;;;;5048110;28;20037;-58
2021/11/14 06:31:18;;;;;;;62.90;35.65;;;9.20;99.90;;;;;;5051463;28;20091;-58
2021/11/14 06:33:44;;;;;;;53.95;31.65;;;9.20;99.90;;;;;;5053390;28;20045;-58
2021/11/14 06:36:10;;;;;;;63.53;35.10;;;9.20;99.90;;;;;;5059517;28;20087;-58
2021/11/14 06:38:36;;;;;;;60.65;34.67;;;9.10;99.90;;;;;;5050043;28;20060;-58
2021/11/14 06:41:02;;;;;;;58.83;35.75;;;9.10;99.90;;;;;;5054086;28;20047;-58
2021/11/14 06:43:28;;;;;;;63.47;34.88;;;9.10;99.90;;;;;;5072073;28;20056;-58
2021/11/14 06:45:55;;;;;;;58.35;34.40;;;9.10;99.90;;;;;;5070089;28;20060;-58
2021/11/14 06:48:22;;;;;;;62.47;34.65;;;9.10;99.90;;;;;;5087290;28;20048;-58
2021/11/14 06:50:49;;;;;;;59.97;34.92;;;9.20;99.90;;;;;;5063502;28;20263;-58
2021/11/14 06:53:15;;;;;;;58.70;35.40;;;9.10;99.90;;;;;;5055138;28;20040;-52
2021/11/14 06:55:41;;;;;;;61.17;35.97;;;9.20;99.90;;;;;;5045465;28;20045;-50
2021/11/14 06:58:07;;;;;;;64.05;37.05;;;9.10;99.90;;;;;;5055305;28;20041;-50
2021/11/14 07:00:34;;;;;;;55.90;32.17;;;9.10;99.90;;;;;;5057969;28;20041;-47
2021/11/14 07:03:00;;;;;;;63.65;34.40;;;9.10;99.90;;;;;;5046877;28;20037;-49
2021/11/14 07:05:26;;;;;;;53.58;32.80;;;9.10;99.90;;;;;;5065831;28;20500;-49
2021/11/14 07:07:52;;;;;;;56.10;31.70;;;9.10;99.90;;;;;;5047155;28;20119;-49
2021/11/14 07:10:20;;;;;;;51.90;31.33;;;9.10;99.90;;;;;;5049231;28;20139;-46
2021/11/14 07:12:46;;;;;;;54.72;31.83;;;9.10;99.90;;;;;;5060581;28;20040;-51
2021/11/14 07:15:14;;;;;;;54.28;32.28;;;9.10;99.90;;;;;;5051129;28;20091;-48
2021/11/14 07:17:41;;;;;;;57.13;33.58;;;9.10;99.90;;;;;;5051354;28;20048;-50
2021/11/14 07:20:09;;;;;;;53.17;32.17;;;9.10;99.90;;;;;;5050381;28;20051;-48
2021/11/14 07:22:35;;;;;;;50.47;31.65;;;9.10;99.90;;;;;;5034507;28;20041;-46
2021/11/14 07:25:02;;;;;;;51.67;31.45;;;9.10;99.90;;;;;;5054927;28;20052;-49
2021/11/14 07:27:28;;;;;;;51.95;32.58;;;9.10;99.90;;;;;;5050934;28;20057;-50
2021/11/14 07:29:54;;;;;;;51.55;31.80;;;9.10;99.90;;;;;;5036211;28;20119;-49
2021/11/14 07:32:21;;;;;;;58.47;33.17;;;9.10;99.90;;;;;;5030464;28;20041;-48
2021/11/14 07:34:47;;;;;;;58.58;32.80;;;9.20;99.90;;;;;;5034126;28;20057;-51
2021/11/14 07:37:13;;;;;;;54.53;32.72;;;9.20;99.90;;;;;;5071443;28;20056;-56
2021/11/14 07:39:39;;;;;;;51.35;31.27;;;9.10;99.90;;;;;;5070562;28;20127;-57
2021/11/14 07:42:06;;;;;;;53.88;31.83;;;9.10;99.90;;;;;;5070270;28;20639;-57
2021/11/14 07:44:32;;;;;;;54.47;33.20;;;9.10;99.90;;;;;;5059630;28;20060;-56
2021/11/14 07:46:58;;;;;;;49.10;29.75;;;9.10;99.90;;;;;;5025296;28;20045;-56
2021/11/14 07:49:24;;;;;;;48.10;31.77;;;9.10;99.90;;;;;;5045396;28;20048;-56
2021/11/14 07:51:50;;;;;;;51.63;31.70;;;9.10;99.90;;;;;;5029331;28;20496;-56
2021/11/14 07:54:16;;;;;;;53.05;32.85;;;9.20;99.90;;;;;;5047913;28;20041;-57
2021/11/14 07:56:43;;;;;;;51.40;30.65;;;9.20;99.90;;;;;;5031231;28;20053;-56
2021/11/14 07:59:10;;;;;;;51.28;30.80;;;9.10;99.90;;;;;;5043412;28;20055;-56
2021/11/14 08:01:36;;;;;;;51.58;30.88;;;9.10;99.90;;;;;;5050844;28;20051;-56
2021/11/14 08:04:02;;;;;;;53.22;30.17;;;9.10;99.90;;;;;;5035702;28;20045;-56
2021/11/14 08:06:28;;;;;;;57.53;31.25;;;9.10;99.90;;;;;;5031293;28;20048;-56
2021/11/14 08:08:54;;;;;;;48.85;28.42;;;9.10;99.90;;;;;;5050677;28;20045;-56
2021/11/14 08:11:20;;;;;;;56.55;29.33;;;9.10;99.90;;;;;;5050964;28;20052;-57
2021/11/14 08:13:46;;;;;;;58.20;27.88;;;9.10;99.90;;;;;;5030898;28;20543;-56
2021/11/14 08:16:12;;;;;;;48.80;28.70;;;9.10;99.90;;;;;;5043171;28;20127;-56
2021/11/14 08:18:38;;;;;;;52.08;27.80;;;9.10;99.90;;;;;;5059306;28;20140;-56
2021/11/14 08:21:04;;;;;;;51.28;29.67;;;9.10;99.90;;;;;;5048466;28;20045;-56
2021/11/14 08:23:30;;;;;;;42.33;27.17;;;9.10;99.90;;;;;;5061956;28;20051;-56
2021/11/14 08:25:57;;;;;;;206.35;155.90;;;9.10;99.90;;;;;;5040614;28;20111;-58
2021/11/14 08:28:23;;;;;;;80.82;54.88;;;9.30;99.90;;;;;;5054823;28;20158;-58
2021/11/14 08:30:49;;;;;;;62.45;39.40;;;9.40;99.90;;;;;;5043386;28;20538;-58
2021/11/14 08:33:15;;;;;;;85.13;61.22;;;9.50;99.90;;;;;;5048759;28;20045;-57
2021/11/14 08:35:41;;;;;;;40.38;27.23;;;9.60;99.90;;;;;;5042391;28;20140;-58
2021/11/14 08:38:08;;;;;;;37.22;24.70;;;9.60;99.90;;;;;;5050012;28;20088;-59
2021/11/14 08:40:36;;;;;;;40.78;25.80;;;9.60;99.90;;;;;;5049067;28;20508;-50
2021/11/14 08:43:05;;;;;;;44.83;27.55;;;9.50;99.90;;;;;;5047425;28;20103;-46
2021/11/14 08:45:31;;;;;;;43.03;27.02;;;9.40;99.90;;;;;;5044625;28;20052;-46
2021/11/14 08:47:59;;;;;;;41.95;27.02;;;9.40;99.90;;;;;;5046926;28;20052;-48
2021/11/14 08:50:27;;;;;;;45.85;28.10;;;9.30;99.90;;;;;;5049584;28;20041;-51
2021/11/14 08:52:57;;;;;;;49.70;30.92;;;9.40;99.90;;;;;;5063329;28;20044;-46
2021/11/14 08:55:25;;;;;;;45.38;31.88;;;9.40;99.90;;;;;;5044742;28;20075;-47
2021/11/14 08:57:53;;;;;;;50.13;32.50;;;9.40;99.90;;;;;;5048281;28;20124;-49
2021/11/14 09:00:22;;;;;;;44.38;30.65;;;9.40;99.90;;;;;;5043858;28;20057;-50
2021/11/14 09:02:51;;;;;;;42.05;29.98;;;9.40;99.90;;;;;;5052434;28;20048;-46
2021/11/14 09:05:20;;;;;;;47.60;30.30;;;9.40;99.90;;;;;;5014009;28;20045;-48
2021/11/14 09:07:46;;;;;;;49.30;30.85;;;9.50;99.90;;;;;;5048565;28;20117;-49
2021/11/14 09:10:12;;;;;;;45.67;30.45;;;9.50;99.90;;;;;;5047820;28;20562;-48
2021/11/14 09:12:39;;;;;;;49.72;32.40;;;9.50;99.90;;;;;;5050607;28;20057;-47
2021/11/14 09:15:06;;;;;;;49.63;31.98;;;9.40;99.90;;;;;;5048231;28;20044;-45
2021/11/14 09:17:32;;;;;;;47.65;31.58;;;9.50;99.90;;;;;;5048077;28;20060;-45
2021/11/14 09:19:58;;;;;;;47.22;31.70;;;9.50;99.90;;;;;;5065268;28;20102;-44
2021/11/14 09:22:25;;;;;;;48.30;31.52;;;9.50;99.90;;;;;;5051210;28;20044;-46
2021/11/14 09:24:51;;;;;;;46.70;33.20;;;9.50;99.90;;;;;;5052089;28;20299;-57
2021/11/14 09:27:17;;;;;;;46.92;34.17;;;9.50;99.90;;;;;;5047768;28;20045;-57
2021/11/14 09:29:43;;;;;;;45.25;30.58;;;9.50;99.90;;;;;;5050843;28;20052;-58
2021/11/14 09:32:09;;;;;;;46.28;32.55;;;9.50;99.90;;;;;;5051009;28;20492;-57
2021/11/14 09:34:36;;;;;;;46.88;32.78;;;9.50;99.90;;;;;;5052107;28;20117;-58
2021/11/14 09:37:03;;;;;;;44.38;31.50;;;9.60;99.90;;;;;;5050853;28;20049;-58
2021/11/14 09:39:29;;;;;;;40.58;28.52;;;9.50;99.90;;;;;;5051967;28;20046;-58
2021/11/14 09:41:55;;;;;;;51.95;40.20;;;9.50;99.90;;;;;;5067427;28;20048;-56
2021/11/14 09:44:21;;;;;;;59.42;42.33;;;9.70;99.90;;;;;;5048793;28;20059;-55
2021/11/14 09:46:56;;;;;;;60.63;45.45;;;9.70;99.90;;;;;;5063178;28;20131;-56
2021/11/14 09:49:25;;;;;;;47.13;35.90;;;9.80;99.90;;;;;;5047901;28;20049;-55
2021/11/14 09:51:53;;;;;;;47.17;35.03;;;9.90;99.90;;;;;;5050285;28;20047;-56
2021/11/14 09:54:22;;;;;;;48.38;33.35;;;9.90;99.90;;;;;;5051362;28;20049;-56
2021/11/14 09:56:49;;;;;;;42.80;31.95;;;9.90;99.90;;;;;;5052091;28;20484;-55
2021/11/14 09:59:16;;;;;;;40.75;30.58;;;10.00;99.90;;;;;;5051767;28;20084;-57
2021/11/14 10:01:44;;;;;;;43.33;31.83;;;10.00;99.90;;;;;;5051480;28;20044;-57
2021/11/14 10:04:11;;;;;;;43.25;30.73;;;10.00;99.90;;;;;;5050767;28;20045;-56
2021/11/14 10:06:38;;;;;;;41.92;28.80;;;10.00;99.90;;;;;;5052717;28;20041;-57
2021/11/14 10:09:07;;;;;;;38.95;28.35;;;10.00;99.90;;;;;;5048114;28;20423;-57
2021/11/14 10:11:37;;;;;;;39.25;30.10;;;10.00;99.90;;;;;;5051579;28;20040;-58
2021/11/14 10:14:04;;;;;;;48.00;30.30;;;10.10;99.90;;;;;;5050234;28;20033;-57
2021/11/14 10:16:32;;;;;;;41.20;30.88;;;10.10;99.90;;;;;;5050892;28;20393;-57
2021/11/14 10:19:06;;;;;;;37.88;27.90;;;10.10;99.90;;;;;;5066061;28;20252;-57
2021/11/14 10:21:34;;;;;;;38.55;29.23;;;10.10;99.90;;;;;;5066504;28;20037;-58
2021/11/14 10:24:04;;;;;;;37.05;26.98;;;10.20;99.90;;;;;;5049571;28;20049;-58
2021/11/14 10:26:31;;;;;;;33.45;24.40;;;10.20;99.90;;;;;;5035671;28;20041;-59
2021/11/14 10:29:07;;;;;;;35.95;27.48;;;10.10;99.90;;;;;;5069340;28;20150;-59
2021/11/14 10:31:34;;;;;;;37.30;28.08;;;10.10;99.90;;;;;;5064587;28;20396;-59
2021/11/14 10:34:00;;;;;;;36.28;28.23;;;10.10;99.90;;;;;;5049560;28;20437;-58
2021/11/14 10:36:29;;;;;;;37.00;29.10;;;10.00;99.90;;;;;;5048277;28;20124;-58
2021/11/14 10:39:13;;;;;;;33.67;27.15;;;10.00;99.90;;;;;;5049607;28;20399;-58
2021/11/14 10:41:45;;;;;;;43.00;32.08;;;10.00;99.90;;;;;;5030474;28;20053;-58
2021/11/14 10:44:17;;;;;;;47.80;34.20;;;9.90;99.90;;;;;;5050771;28;20387;-59
2021/11/14 10:46:43;;;;;;;48.83;34.90;;;9.90;99.90;;;;;;5049722;28;20128;-58
2021/11/14 10:49:10;;;;;;;55.17;37.13;;;9.90;99.90;;;;;;5051643;28;20510;-58
2021/11/14 10:51:38;;;;;;;46.88;35.08;;;9.90;99.90;;;;;;5031811;28;20124;-58
2021/11/14 10:54:05;;;;;;;47.45;35.25;;;9.80;99.90;;;;;;5047774;28;20040;-58
2021/11/14 10:56:31;;;;;;;49.55;35.83;;;9.80;99.90;;;;;;5050918;28;20538;-58
2021/11/14 10:58:57;;;;;;;54.33;37.30;;;9.80;99.90;;;;;;5049980;28;20323;-58
2021/11/14 11:01:24;;;;;;;52.47;36.40;;;9.80;99.90;;;;;;5050950;28;20048;-58
2021/11/14 11:03:52;;;;;;;54.25;38.50;;;9.80;99.90;;;;;;5050078;28;20033;-58
2021/11/14 11:06:23;;;;;;;51.88;38.50;;;9.80;99.90;;;;;;5049089;28;20140;-58
2021/11/14 11:08:49;;;;;;;56.70;36.38;;;9.80;99.90;;;;;;5050612;28;20047;-58
2021/11/14 11:11:20;;;;;;;53.88;40.08;;;9.90;99.90;;;;;;5047212;28;20041;-58
2021/11/14 11:13:48;;;;;;;61.33;40.47;;;9.90;99.90;;;;;;5049582;28;20045;-58
2021/11/14 11:16:18;;;;;;;56.53;39.17;;;9.90;99.90;;;;;;5050453;28;20053;-58
2021/11/14 11:18:54;;;;;;;55.30;40.22;;;9.90;99.90;;;;;;5052047;28;20556;-58
2021/11/14 11:21:20;;;;;;;60.33;41.63;;;9.90;99.90;;;;;;5051017;28;20045;-58
2021/11/14 11:23:46;;;;;;;56.22;40.80;;;10.00;99.90;;;;;;5050846;28;20068;-59
2021/11/14 11:26:15;;;;;;;61.38;40.90;;;9.90;99.90;;;;;;5048996;28;20084;-46
2021/11/14 11:28:44;;;;;;;57.17;40.00;;;9.90;99.90;;;;;;5048446;28;20056;-47
2021/11/14 11:31:14;;;;;;;58.85;39.67;;;10.00;99.90;;;;;;5066001;28;20392;-45
2021/11/14 11:33:44;;;;;;;82.25;62.75;;;10.00;99.90;;;;;;5085410;28;20340;-60
2021/11/14 11:36:11;;;;;;;62.55;45.97;;;10.20;99.90;;;;;;5057936;28;20511;-61
2021/11/14 11:38:43;;;;;;;64.03;44.80;;;10.20;99.90;;;;;;5048939;28;20498;-61
2021/11/14 11:41:11;;;;;;;57.60;40.70;;;10.20;99.90;;;;;;5055633;28;20475;-60
2021/11/14 11:43:38;;;;;;;71.60;50.72;;;10.30;99.90;;;;;;5047926;28;20044;-60
2021/11/14 11:46:08;;;;;;;56.38;41.53;;;10.30;99.90;;;;;;5030868;28;20049;-60
2021/11/14 11:48:42;;;;;;;60.88;46.80;;;10.30;99.90;;;;;;5049886;28;20076;-60
2021/11/14 11:51:14;;;;;;;56.80;41.85;;;10.40;99.90;;;;;;5049786;28;20083;-60
2021/11/14 11:53:41;;;;;;;62.38;42.80;;;10.30;99.90;;;;;;5049790;28;20041;-60
2021/11/14 11:56:18;;;;;;;55.72;40.38;;;10.40;99.90;;;;;;5049810;28;20488;-60
2021/11/14 11:58:45;;;;;;;51.40;37.95;;;10.40;99.90;;;;;;5032682;28;20044;-60
2021/11/14 12:01:25;;;;;;;55.63;39.90;;;10.30;99.90;;;;;;5046704;28;20068;-60
2021/11/14 12:03:53;;;;;;;47.47;35.38;;;10.40;99.90;;;;;;5047611;28;20036;-60
2021/11/14 12:06:24;;;;;;;51.92;37.85;;;10.30;99.90;;;;;;5049211;28;20045;-60
2021/11/14 12:08:56;;;;;;;49.67;36.63;;;10.30;99.90;;;;;;5054451;28;20036;-60
2021/11/14 12:11:28;;;;;;;51.45;36.00;;;10.40;99.90;;;;;;5050545;28;20048;-60
2021/11/14 12:13:55;;;;;;;49.85;36.42;;;10.40;99.90;;;;;;5048846;28;20048;-60
2021/11/14 12:16:30;;;;;;;48.38;35.85;;;10.40;99.90;;;;;;5047734;28;20392;-60
2021/11/14 12:18:57;;;;;;;50.47;35.83;;;10.50;99.90;;;;;;5045303;28;20521;-60
2021/11/14 12:21:23;;;;;;;50.35;36.05;;;10.50;99.90;;;;;;5047757;28;20527;-60
2021/11/14 12:23:59;;;;;;;49.03;35.13;;;10.50;99.90;;;;;;5051783;28;20033;-60
2021/11/14 12:26:31;;;;;;;48.67;36.53;;;10.40;99.90;;;;;;5076797;28;20441;-60
2021/11/14 12:29:03;;;;;;;50.47;36.63;;;10.40;99.90;;;;;;5043215;28;20045;-60
2021/11/14 12:31:31;;;;;;;47.45;37.85;;;10.30;99.90;;;;;;5048494;28;20425;-60
2021/11/14 12:34:07;;;;;;;51.70;39.35;;;10.30;99.90;;;;;;5047120;28;20040;-61
2021/11/14 12:36:44;;;;;;;56.10;39.53;;;10.30;99.90;;;;;;5040600;28;20049;-60